sensor_id;sensor_type;location;lat;lon;timestamp;temperature;humidity
68098;DHT22;54886;47.036;15.466;2023-04-09T00:01:57;5.28;79.26
68098;DHT22;54886;47.036;15.466;2023-04-09T00:04:22;5.28;77.36
68098;DHT22;54886;47.036;15.466;2023-04-09T00:06:48;5.32;77.72
68098;DHT22;54886;47.036;15.466;2023-04-09T00:09:13;5.28;78.77
68098;DHT22;54886;47.036;15.466;2023-04-09T00:11:39;5.27;78.40
68098;DHT22;54886;47.036;15.466;2023-04-09T00:14:04;5.24;78.81
68098;DHT22;54886;47.036;15.466;2023-04-09T00:16:30;5.30;76.81
68098;DHT22;54886;47.036;15.466;2023-04-09T00:18:55;5.37;76.09
68098;DHT22;54886;47.036;15.466;2023-04-09T00:21:21;5.35;75.40
68098;DHT22;54886;47.036;15.466;2023-04-09T00:23:46;5.32;78.07
68098;DHT22;54886;47.036;15.466;2023-04-09T00:26:12;5.30;75.93
68098;DHT22;54886;47.036;15.466;2023-04-09T00:28:37;5.35;76.20
68098;DHT22;54886;47.036;15.466;2023-04-09T00:31:03;5.34;76.36
68098;DHT22;54886;47.036;15.466;2023-04-09T00:33:28;5.32;77.41
68098;DHT22;54886;47.036;15.466;2023-04-09T00:35:54;5.30;77.73
68098;DHT22;54886;47.036;15.466;2023-04-09T00:38:19;5.32;76.43
68098;DHT22;54886;47.036;15.466;2023-04-09T00:40:49;5.28;77.11
68098;DHT22;54886;47.036;15.466;2023-04-09T00:43:15;5.30;77.11
68098;DHT22;54886;47.036;15.466;2023-04-09T00:45:40;5.26;78.09
68098;DHT22;54886;47.036;15.466;2023-04-09T00:48:06;5.28;76.68
68098;DHT22;54886;47.036;15.466;2023-04-09T00:50:33;5.28;76.59
68098;DHT22;54886;47.036;15.466;2023-04-09T00:52:58;5.26;77.13
68098;DHT22;54886;47.036;15.466;2023-04-09T00:55:24;5.28;76.50
68098;DHT22;54886;47.036;15.466;2023-04-09T00:57:49;5.26;76.92
68098;DHT22;54886;47.036;15.466;2023-04-09T01:00:15;5.27;75.11
68098;DHT22;54886;47.036;15.466;2023-04-09T01:02:40;5.27;75.60
68098;DHT22;54886;47.036;15.466;2023-04-09T01:05:07;5.27;75.37
68098;DHT22;54886;47.036;15.466;2023-04-09T01:15:32;5.13;78.57
68098;DHT22;54886;47.036;15.466;2023-04-09T01:20:41;5.06;80.06
68098;DHT22;54886;47.036;15.466;2023-04-09T01:28:32;5.06;80.21
68098;DHT22;54886;47.036;15.466;2023-04-09T01:31:01;5.07;80.51
68098;DHT22;54886;47.036;15.466;2023-04-09T01:33:29;5.04;80.72
68098;DHT22;54886;47.036;15.466;2023-04-09T01:35:56;5.01;80.60
68098;DHT22;54886;47.036;15.466;2023-04-09T01:38:22;5.07;79.63
68098;DHT22;54886;47.036;15.466;2023-04-09T01:40:48;5.07;77.80
68098;DHT22;54886;47.036;15.466;2023-04-09T01:43:15;5.00;81.21
68098;DHT22;54886;47.036;15.466;2023-04-09T01:45:43;5.03;79.35
68098;DHT22;54886;47.036;15.466;2023-04-09T01:48:11;5.01;80.94
68098;DHT22;54886;47.036;15.466;2023-04-09T01:50:37;5.01;80.35
68098;DHT22;54886;47.036;15.466;2023-04-09T01:53:02;5.03;80.74
68098;DHT22;54886;47.036;15.466;2023-04-09T01:55:28;5.01;81.14
68098;DHT22;54886;47.036;15.466;2023-04-09T01:57:53;5.00;81.05
68098;DHT22;54886;47.036;15.466;2023-04-09T02:00:19;5.04;76.82
68098;DHT22;54886;47.036;15.466;2023-04-09T02:05:23;5.01;81.23
68098;DHT22;54886;47.036;15.466;2023-04-09T02:07:55;4.94;81.77
68098;DHT22;54886;47.036;15.466;2023-04-09T02:10:26;4.93;81.57
68098;DHT22;54886;47.036;15.466;2023-04-09T02:12:52;4.92;81.57
68098;DHT22;54886;47.036;15.466;2023-04-09T02:15:38;4.94;79.28
68098;DHT22;54886;47.036;15.466;2023-04-09T02:18:04;4.96;80.31
68098;DHT22;54886;47.036;15.466;2023-04-09T02:20:30;4.87;81.67
68098;DHT22;54886;47.036;15.466;2023-04-09T02:22:55;4.90;80.84
68098;DHT22;54886;47.036;15.466;2023-04-09T02:25:21;4.94;77.61
68098;DHT22;54886;47.036;15.466;2023-04-09T02:27:47;4.99;77.05
68098;DHT22;54886;47.036;15.466;2023-04-09T02:30:12;4.94;80.97
68098;DHT22;54886;47.036;15.466;2023-04-09T02:32:37;5.00;76.38
68098;DHT22;54886;47.036;15.466;2023-04-09T02:35:03;5.01;80.12
68098;DHT22;54886;47.036;15.466;2023-04-09T02:37:28;4.99;81.52
68098;DHT22;54886;47.036;15.466;2023-04-09T02:39:54;4.97;81.34
68098;DHT22;54886;47.036;15.466;2023-04-09T02:42:20;4.97;80.32
68098;DHT22;54886;47.036;15.466;2023-04-09T02:44:45;4.96;82.33
68098;DHT22;54886;47.036;15.466;2023-04-09T02:47:11;4.96;80.99
68098;DHT22;54886;47.036;15.466;2023-04-09T02:49:36;4.96;80.79
68098;DHT22;54886;47.036;15.466;2023-04-09T02:52:02;4.94;81.48
68098;DHT22;54886;47.036;15.466;2023-04-09T02:54:27;4.96;79.36
68098;DHT22;54886;47.036;15.466;2023-04-09T02:56:52;4.97;79.72
68098;DHT22;54886;47.036;15.466;2023-04-09T02:59:18;4.94;81.51
68098;DHT22;54886;47.036;15.466;2023-04-09T03:01:43;4.97;79.84
68098;DHT22;54886;47.036;15.466;2023-04-09T03:04:08;4.96;77.63
68098;DHT22;54886;47.036;15.466;2023-04-09T03:06:34;4.99;78.64
68098;DHT22;54886;47.036;15.466;2023-04-09T03:09:00;5.00;78.55
68098;DHT22;54886;47.036;15.466;2023-04-09T03:11:25;4.99;77.10
68098;DHT22;54886;47.036;15.466;2023-04-09T03:13:50;5.00;76.90
68098;DHT22;54886;47.036;15.466;2023-04-09T03:16:16;5.00;76.92
68098;DHT22;54886;47.036;15.466;2023-04-09T03:18:41;5.00;77.36
68098;DHT22;54886;47.036;15.466;2023-04-09T03:21:07;5.00;75.82
68098;DHT22;54886;47.036;15.466;2023-04-09T03:23:33;4.99;77.04
68098;DHT22;54886;47.036;15.466;2023-04-09T03:26:05;4.96;76.30
68098;DHT22;54886;47.036;15.466;2023-04-09T03:28:30;4.97;76.52
68098;DHT22;54886;47.036;15.466;2023-04-09T03:30:56;4.93;76.77
68098;DHT22;54886;47.036;15.466;2023-04-09T03:33:22;4.92;77.48
68098;DHT22;54886;47.036;15.466;2023-04-09T03:35:48;4.92;79.06
68098;DHT22;54886;47.036;15.466;2023-04-09T03:38:13;4.90;80.17
68098;DHT22;54886;47.036;15.466;2023-04-09T03:40:39;4.80;81.68
68098;DHT22;54886;47.036;15.466;2023-04-09T03:43:05;4.82;80.32
68098;DHT22;54886;47.036;15.466;2023-04-09T03:45:31;4.85;78.91
68098;DHT22;54886;47.036;15.466;2023-04-09T03:47:56;4.83;79.87
68098;DHT22;54886;47.036;15.466;2023-04-09T03:50:21;4.80;80.92
68098;DHT22;54886;47.036;15.466;2023-04-09T03:52:47;4.79;80.78
68098;DHT22;54886;47.036;15.466;2023-04-09T03:55:12;4.76;81.92
68098;DHT22;54886;47.036;15.466;2023-04-09T03:57:38;4.79;78.20
68098;DHT22;54886;47.036;15.466;2023-04-09T04:00:04;4.79;78.59
68098;DHT22;54886;47.036;15.466;2023-04-09T04:02:29;4.83;77.70
68098;DHT22;54886;47.036;15.466;2023-04-09T04:04:58;4.83;77.56
68098;DHT22;54886;47.036;15.466;2023-04-09T04:07:23;4.85;77.04
68098;DHT22;54886;47.036;15.466;2023-04-09T04:09:49;4.85;76.38
68098;DHT22;54886;47.036;15.466;2023-04-09T04:12:15;4.82;78.08
68098;DHT22;54886;47.036;15.466;2023-04-09T04:14:40;4.82;77.06
68098;DHT22;54886;47.036;15.466;2023-04-09T04:17:06;4.83;76.96
68098;DHT22;54886;47.036;15.466;2023-04-09T04:19:31;4.83;76.28
68098;DHT22;54886;47.036;15.466;2023-04-09T04:21:56;4.82;76.48
68098;DHT22;54886;47.036;15.466;2023-04-09T04:24:22;4.80;79.28
68098;DHT22;54886;47.036;15.466;2023-04-09T04:26:47;4.77;78.30
68098;DHT22;54886;47.036;15.466;2023-04-09T04:29:13;4.80;77.73
68098;DHT22;54886;47.036;15.466;2023-04-09T04:31:38;4.79;80.63
68098;DHT22;54886;47.036;15.466;2023-04-09T04:34:03;4.80;77.95
68098;DHT22;54886;47.036;15.466;2023-04-09T04:36:29;4.77;79.94
68098;DHT22;54886;47.036;15.466;2023-04-09T04:38:54;4.76;77.93
68098;DHT22;54886;47.036;15.466;2023-04-09T04:41:20;4.80;79.72
68098;DHT22;54886;47.036;15.466;2023-04-09T04:43:47;4.75;80.76
68098;DHT22;54886;47.036;15.466;2023-04-09T04:46:12;4.77;81.47
68098;DHT22;54886;47.036;15.466;2023-04-09T04:48:38;4.77;81.17
68098;DHT22;54886;47.036;15.466;2023-04-09T04:51:03;4.76;81.66
68098;DHT22;54886;47.036;15.466;2023-04-09T04:53:29;4.80;78.23
68098;DHT22;54886;47.036;15.466;2023-04-09T04:55:54;4.83;78.40
68098;DHT22;54886;47.036;15.466;2023-04-09T04:58:20;4.83;78.12
68098;DHT22;54886;47.036;15.466;2023-04-09T05:00:45;4.85;77.14
68098;DHT22;54886;47.036;15.466;2023-04-09T05:03:11;4.89;79.68
68098;DHT22;54886;47.036;15.466;2023-04-09T05:05:36;4.89;77.56
68098;DHT22;54886;47.036;15.466;2023-04-09T05:08:02;4.89;80.68
68098;DHT22;54886;47.036;15.466;2023-04-09T05:10:27;4.87;82.29
68098;DHT22;54886;47.036;15.466;2023-04-09T05:12:52;4.87;80.99
68098;DHT22;54886;47.036;15.466;2023-04-09T05:15:18;4.90;80.61
68098;DHT22;54886;47.036;15.466;2023-04-09T05:17:44;4.86;82.39
68098;DHT22;54886;47.036;15.466;2023-04-09T05:20:10;4.89;81.40
68098;DHT22;54886;47.036;15.466;2023-04-09T05:22:36;4.86;81.76
68098;DHT22;54886;47.036;15.466;2023-04-09T05:25:02;4.92;80.74
68098;DHT22;54886;47.036;15.466;2023-04-09T05:27:28;4.85;83.36
68098;DHT22;54886;47.036;15.466;2023-04-09T05:29:53;4.92;82.42
68098;DHT22;54886;47.036;15.466;2023-04-09T05:32:19;4.96;80.90
68098;DHT22;54886;47.036;15.466;2023-04-09T05:34:44;4.96;81.91
68098;DHT22;54886;47.036;15.466;2023-04-09T05:37:09;4.99;80.91
68098;DHT22;54886;47.036;15.466;2023-04-09T05:39:35;5.00;82.49
68098;DHT22;54886;47.036;15.466;2023-04-09T05:42:00;4.99;81.18
68098;DHT22;54886;47.036;15.466;2023-04-09T05:44:26;5.03;80.88
68098;DHT22;54886;47.036;15.466;2023-04-09T05:46:51;5.04;82.29
68098;DHT22;54886;47.036;15.466;2023-04-09T05:49:17;5.01;81.63
68098;DHT22;54886;47.036;15.466;2023-04-09T05:51:42;5.04;81.03
68098;DHT22;54886;47.036;15.466;2023-04-09T05:54:08;5.01;81.76
68098;DHT22;54886;47.036;15.466;2023-04-09T05:56:34;4.96;82.91
68098;DHT22;54886;47.036;15.466;2023-04-09T05:58:59;5.00;83.04
68098;DHT22;54886;47.036;15.466;2023-04-09T06:01:25;5.01;82.99
68098;DHT22;54886;47.036;15.466;2023-04-09T06:03:51;5.06;82.79
68098;DHT22;54886;47.036;15.466;2023-04-09T06:06:17;5.06;82.34
68098;DHT22;54886;47.036;15.466;2023-04-09T06:08:42;5.09;81.95
68098;DHT22;54886;47.036;15.466;2023-04-09T06:11:09;5.06;82.77
68098;DHT22;54886;47.036;15.466;2023-04-09T06:13:35;5.06;83.03
68098;DHT22;54886;47.036;15.466;2023-04-09T06:16:03;5.10;82.23
68098;DHT22;54886;47.036;15.466;2023-04-09T06:18:29;5.14;82.87
68098;DHT22;54886;47.036;15.466;2023-04-09T06:21:04;5.17;81.68
68098;DHT22;54886;47.036;15.466;2023-04-09T06:23:32;5.19;81.93
68098;DHT22;54886;47.036;15.466;2023-04-09T06:25:57;5.24;78.06
68098;DHT22;54886;47.036;15.466;2023-04-09T06:28:23;5.20;82.56
68098;DHT22;54886;47.036;15.466;2023-04-09T06:30:48;5.16;81.79
68098;DHT22;54886;47.036;15.466;2023-04-09T06:33:14;5.17;80.80
68098;DHT22;54886;47.036;15.466;2023-04-09T06:35:40;5.20;81.00
68098;DHT22;54886;47.036;15.466;2023-04-09T06:38:05;5.23;78.43
68098;DHT22;54886;47.036;15.466;2023-04-09T06:40:31;5.20;80.29
68098;DHT22;54886;47.036;15.466;2023-04-09T06:42:57;5.20;79.37
68098;DHT22;54886;47.036;15.466;2023-04-09T06:45:23;5.21;80.57
68098;DHT22;54886;47.036;15.466;2023-04-09T06:47:48;5.23;81.21
68098;DHT22;54886;47.036;15.466;2023-04-09T06:50:14;5.26;78.53
68098;DHT22;54886;47.036;15.466;2023-04-09T06:52:39;5.26;81.71
68098;DHT22;54886;47.036;15.466;2023-04-09T06:55:05;5.27;77.96
68098;DHT22;54886;47.036;15.466;2023-04-09T06:57:30;5.30;81.14
68098;DHT22;54886;47.036;15.466;2023-04-09T06:59:56;5.31;80.91
68098;DHT22;54886;47.036;15.466;2023-04-09T07:02:21;5.28;80.67
68098;DHT22;54886;47.036;15.466;2023-04-09T07:04:47;5.32;79.06
68098;DHT22;54886;47.036;15.466;2023-04-09T07:07:12;5.32;80.80
68098;DHT22;54886;47.036;15.466;2023-04-09T07:09:38;5.34;80.80
68098;DHT22;54886;47.036;15.466;2023-04-09T07:12:03;5.35;79.48
68098;DHT22;54886;47.036;15.466;2023-04-09T07:14:28;5.37;81.44
68098;DHT22;54886;47.036;15.466;2023-04-09T07:16:54;5.41;80.41
68098;DHT22;54886;47.036;15.466;2023-04-09T07:19:19;5.44;80.06
68098;DHT22;54886;47.036;15.466;2023-04-09T07:21:45;5.45;80.40
68098;DHT22;54886;47.036;15.466;2023-04-09T07:24:10;5.47;81.08
68098;DHT22;54886;47.036;15.466;2023-04-09T07:26:36;5.48;78.00
68098;DHT22;54886;47.036;15.466;2023-04-09T07:29:01;5.49;78.86
68098;DHT22;54886;47.036;15.466;2023-04-09T07:31:28;5.54;79.28
68098;DHT22;54886;47.036;15.466;2023-04-09T07:33:53;5.55;78.22
68098;DHT22;54886;47.036;15.466;2023-04-09T07:36:19;5.55;80.64
68098;DHT22;54886;47.036;15.466;2023-04-09T07:38:44;5.58;78.86
68098;DHT22;54886;47.036;15.466;2023-04-09T07:41:10;5.59;79.29
68098;DHT22;54886;47.036;15.466;2023-04-09T07:43:35;5.62;80.74
68098;DHT22;54886;47.036;15.466;2023-04-09T07:46:01;5.60;81.90
68098;DHT22;54886;47.036;15.466;2023-04-09T07:48:26;5.65;79.26
68098;DHT22;54886;47.036;15.466;2023-04-09T07:50:52;5.69;81.15
68098;DHT22;54886;47.036;15.466;2023-04-09T07:53:17;5.75;81.22
68098;DHT22;54886;47.036;15.466;2023-04-09T07:55:43;5.73;77.43
68098;DHT22;54886;47.036;15.466;2023-04-09T07:58:08;5.70;80.95
68098;DHT22;54886;47.036;15.466;2023-04-09T08:00:34;5.77;80.20
68098;DHT22;54886;47.036;15.466;2023-04-09T08:03:00;5.82;80.21
68098;DHT22;54886;47.036;15.466;2023-04-09T08:05:27;5.87;80.24
68098;DHT22;54886;47.036;15.466;2023-04-09T08:07:53;5.92;79.30
68098;DHT22;54886;47.036;15.466;2023-04-09T08:10:18;5.94;79.67
68098;DHT22;54886;47.036;15.466;2023-04-09T08:12:44;5.93;80.52
68098;DHT22;54886;47.036;15.466;2023-04-09T08:15:10;5.99;81.62
68098;DHT22;54886;47.036;15.466;2023-04-09T08:17:36;6.04;78.91
68098;DHT22;54886;47.036;15.466;2023-04-09T08:20:02;6.03;80.59
68098;DHT22;54886;47.036;15.466;2023-04-09T08:22:28;6.07;80.60
68098;DHT22;54886;47.036;15.466;2023-04-09T08:24:55;6.14;80.33
68098;DHT22;54886;47.036;15.466;2023-04-09T08:27:20;6.14;80.49
68098;DHT22;54886;47.036;15.466;2023-04-09T08:29:46;6.13;78.40
68098;DHT22;54886;47.036;15.466;2023-04-09T08:32:11;6.13;80.50
68098;DHT22;54886;47.036;15.466;2023-04-09T08:34:37;6.16;79.58
68098;DHT22;54886;47.036;15.466;2023-04-09T08:37:02;6.13;79.03
68098;DHT22;54886;47.036;15.466;2023-04-09T08:39:27;6.20;78.79
68098;DHT22;54886;47.036;15.466;2023-04-09T08:41:59;6.20;77.45
68098;DHT22;54886;47.036;15.466;2023-04-09T08:44:28;6.18;77.25
68098;DHT22;54886;47.036;15.466;2023-04-09T08:46:54;6.17;77.26
68098;DHT22;54886;47.036;15.466;2023-04-09T08:49:20;6.11;77.86
68098;DHT22;54886;47.036;15.466;2023-04-09T08:51:47;6.18;77.90
68098;DHT22;54886;47.036;15.466;2023-04-09T08:54:17;6.18;78.32
68098;DHT22;54886;47.036;15.466;2023-04-09T08:56:47;6.22;77.10
68098;DHT22;54886;47.036;15.466;2023-04-09T08:59:16;6.20;77.89
68098;DHT22;54886;47.036;15.466;2023-04-09T09:01:45;6.25;78.18
68098;DHT22;54886;47.036;15.466;2023-04-09T09:04:13;6.20;80.47
68098;DHT22;54886;47.036;15.466;2023-04-09T09:06:40;6.27;79.09
68098;DHT22;54886;47.036;15.466;2023-04-09T09:09:13;6.27;78.49
68098;DHT22;54886;47.036;15.466;2023-04-09T09:11:43;6.31;77.77
68098;DHT22;54886;47.036;15.466;2023-04-09T09:14:14;6.31;78.20
68098;DHT22;54886;47.036;15.466;2023-04-09T09:16:41;6.32;77.92
68098;DHT22;54886;47.036;15.466;2023-04-09T09:19:28;6.35;78.84
68098;DHT22;54886;47.036;15.466;2023-04-09T09:21:59;6.35;77.90
68098;DHT22;54886;47.036;15.466;2023-04-09T09:24:24;6.35;77.30
68098;DHT22;54886;47.036;15.466;2023-04-09T09:26:51;6.32;77.73
68098;DHT22;54886;47.036;15.466;2023-04-09T09:29:16;6.22;77.86
68098;DHT22;54886;47.036;15.466;2023-04-09T09:31:49;6.28;78.67
68098;DHT22;54886;47.036;15.466;2023-04-09T09:34:16;6.28;79.76
68098;DHT22;54886;47.036;15.466;2023-04-09T09:36:42;6.27;79.18
68098;DHT22;54886;47.036;15.466;2023-04-09T09:39:08;6.18;79.54
68098;DHT22;54886;47.036;15.466;2023-04-09T09:41:34;6.21;79.33
68098;DHT22;54886;47.036;15.466;2023-04-09T09:43:59;6.14;79.80
68098;DHT22;54886;47.036;15.466;2023-04-09T09:46:25;6.21;79.64
68098;DHT22;54886;47.036;15.466;2023-04-09T09:48:51;6.28;78.79
68098;DHT22;54886;47.036;15.466;2023-04-09T09:51:18;6.35;78.35
68098;DHT22;54886;47.036;15.466;2023-04-09T09:53:44;6.41;79.15
68098;DHT22;54886;47.036;15.466;2023-04-09T09:56:21;6.38;77.97
68098;DHT22;54886;47.036;15.466;2023-04-09T09:58:59;6.49;79.58
68098;DHT22;54886;47.036;15.466;2023-04-09T10:01:28;6.56;78.65
68098;DHT22;54886;47.036;15.466;2023-04-09T10:03:55;6.61;78.25
68098;DHT22;54886;47.036;15.466;2023-04-09T10:06:21;6.62;77.88
68098;DHT22;54886;47.036;15.466;2023-04-09T10:08:48;6.68;78.73
68098;DHT22;54886;47.036;15.466;2023-04-09T10:11:16;6.82;79.85
68098;DHT22;54886;47.036;15.466;2023-04-09T10:13:49;6.93;79.05
68098;DHT22;54886;47.036;15.466;2023-04-09T10:16:16;6.99;78.77
68098;DHT22;54886;47.036;15.466;2023-04-09T10:18:42;7.07;79.91
68098;DHT22;54886;47.036;15.466;2023-04-09T10:21:29;7.14;79.08
68098;DHT22;54886;47.036;15.466;2023-04-09T10:23:55;7.13;78.40
68098;DHT22;54886;47.036;15.466;2023-04-09T10:26:24;7.21;78.21
68098;DHT22;54886;47.036;15.466;2023-04-09T10:29:07;7.27;77.15
68098;DHT22;54886;47.036;15.466;2023-04-09T10:32:05;7.31;76.67
68098;DHT22;54886;47.036;15.466;2023-04-09T10:34:40;7.42;78.88
68098;DHT22;54886;47.036;15.466;2023-04-09T10:37:08;7.41;74.99
68098;DHT22;54886;47.036;15.466;2023-04-09T10:39:44;7.52;77.57
68098;DHT22;54886;47.036;15.466;2023-04-09T10:42:14;7.66;77.58
68098;DHT22;54886;47.036;15.466;2023-04-09T10:44:42;7.73;75.22
68098;DHT22;54886;47.036;15.466;2023-04-09T10:47:08;7.82;74.49
68098;DHT22;54886;47.036;15.466;2023-04-09T10:49:38;7.83;74.49
68098;DHT22;54886;47.036;15.466;2023-04-09T10:52:05;7.91;74.59
68098;DHT22;54886;47.036;15.466;2023-04-09T10:57:10;8.00;72.74
68098;DHT22;54886;47.036;15.466;2023-04-09T10:59:42;8.08;73.63
68098;DHT22;54886;47.036;15.466;2023-04-09T11:07:55;8.07;72.38
68098;DHT22;54886;47.036;15.466;2023-04-09T11:10:22;8.10;72.38
68098;DHT22;54886;47.036;15.466;2023-04-09T11:12:48;8.24;75.43
68098;DHT22;54886;47.036;15.466;2023-04-09T11:15:17;8.28;74.80
68098;DHT22;54886;47.036;15.466;2023-04-09T11:17:44;8.28;72.52
68098;DHT22;54886;47.036;15.466;2023-04-09T11:20:10;8.32;71.96
68098;DHT22;54886;47.036;15.466;2023-04-09T11:22:35;8.31;71.27
68098;DHT22;54886;47.036;15.466;2023-04-09T11:25:01;8.32;72.68
68098;DHT22;54886;47.036;15.466;2023-04-09T11:27:27;8.32;72.22
68098;DHT22;54886;47.036;15.466;2023-04-09T11:29:55;8.38;71.28
68098;DHT22;54886;47.036;15.466;2023-04-09T11:32:20;8.37;68.74
68098;DHT22;54886;47.036;15.466;2023-04-09T11:34:46;8.41;68.56
68098;DHT22;54886;47.036;15.466;2023-04-09T11:37:15;8.48;69.90
68098;DHT22;54886;47.036;15.466;2023-04-09T11:39:44;8.51;69.77
68098;DHT22;54886;47.036;15.466;2023-04-09T11:42:13;8.48;69.49
68098;DHT22;54886;47.036;15.466;2023-04-09T11:44:39;8.53;70.36
68098;DHT22;54886;47.036;15.466;2023-04-09T11:47:05;8.55;70.55
68098;DHT22;54886;47.036;15.466;2023-04-09T11:49:32;8.53;70.88
68098;DHT22;54886;47.036;15.466;2023-04-09T11:51:58;8.56;70.43
68098;DHT22;54886;47.036;15.466;2023-04-09T11:54:31;8.53;70.32
68098;DHT22;54886;47.036;15.466;2023-04-09T11:57:06;8.62;70.86
68098;DHT22;54886;47.036;15.466;2023-04-09T11:59:32;8.73;70.08
68098;DHT22;54886;47.036;15.466;2023-04-09T12:01:58;8.77;69.24
68098;DHT22;54886;47.036;15.466;2023-04-09T12:04:23;8.79;69.59
68098;DHT22;54886;47.036;15.466;2023-04-09T12:06:49;8.80;71.07
68098;DHT22;54886;47.036;15.466;2023-04-09T12:09:14;8.81;70.51
68098;DHT22;54886;47.036;15.466;2023-04-09T12:11:44;8.76;69.46
68098;DHT22;54886;47.036;15.466;2023-04-09T12:14:15;8.73;68.87
68098;DHT22;54886;47.036;15.466;2023-04-09T12:16:41;8.70;69.81
68098;DHT22;54886;47.036;15.466;2023-04-09T12:19:09;8.73;69.48
68098;DHT22;54886;47.036;15.466;2023-04-09T12:21:54;8.77;68.62
68098;DHT22;54886;47.036;15.466;2023-04-09T12:24:22;8.79;69.46
68098;DHT22;54886;47.036;15.466;2023-04-09T12:26:48;8.79;70.23
68098;DHT22;54886;47.036;15.466;2023-04-09T12:29:15;8.75;69.80
68098;DHT22;54886;47.036;15.466;2023-04-09T12:31:41;8.72;69.76
68098;DHT22;54886;47.036;15.466;2023-04-09T12:34:07;8.76;70.52
68098;DHT22;54886;47.036;15.466;2023-04-09T12:36:32;8.77;70.67
68098;DHT22;54886;47.036;15.466;2023-04-09T12:38:58;8.81;69.51
68098;DHT22;54886;47.036;15.466;2023-04-09T12:41:23;8.79;70.22
68098;DHT22;54886;47.036;15.466;2023-04-09T12:43:49;8.80;70.76
68098;DHT22;54886;47.036;15.466;2023-04-09T12:46:16;8.86;71.91
68098;DHT22;54886;47.036;15.466;2023-04-09T12:48:42;8.86;68.37
68098;DHT22;54886;47.036;15.466;2023-04-09T12:51:07;8.87;68.01
68098;DHT22;54886;47.036;15.466;2023-04-09T12:53:35;8.90;67.97
68098;DHT22;54886;47.036;15.466;2023-04-09T12:56:00;8.90;67.70
68098;DHT22;54886;47.036;15.466;2023-04-09T12:58:26;8.90;67.99
68098;DHT22;54886;47.036;15.466;2023-04-09T13:00:52;8.88;67.96
68098;DHT22;54886;47.036;15.466;2023-04-09T13:03:18;8.88;68.36
68098;DHT22;54886;47.036;15.466;2023-04-09T13:05:45;8.87;68.22
68098;DHT22;54886;47.036;15.466;2023-04-09T13:08:11;8.90;68.40
68098;DHT22;54886;47.036;15.466;2023-04-09T13:10:36;8.88;67.90
68098;DHT22;54886;47.036;15.466;2023-04-09T13:13:02;8.83;67.21
68098;DHT22;54886;47.036;15.466;2023-04-09T13:15:27;8.77;68.69
68098;DHT22;54886;47.036;15.466;2023-04-09T13:17:53;8.69;68.47
68098;DHT22;54886;47.036;15.466;2023-04-09T13:20:18;8.60;69.21
68098;DHT22;54886;47.036;15.466;2023-04-09T13:22:45;8.45;70.19
68098;DHT22;54886;47.036;15.466;2023-04-09T13:25:13;8.46;70.45
68098;DHT22;54886;47.036;15.466;2023-04-09T13:27:38;8.40;71.10
68098;DHT22;54886;47.036;15.466;2023-04-09T13:30:04;8.34;72.45
68098;DHT22;54886;47.036;15.466;2023-04-09T13:32:30;8.25;72.87
68098;DHT22;54886;47.036;15.466;2023-04-09T13:34:55;8.30;72.04
68098;DHT22;54886;47.036;15.466;2023-04-09T13:37:22;8.27;72.93
68098;DHT22;54886;47.036;15.466;2023-04-09T13:39:48;8.24;73.25
68098;DHT22;54886;47.036;15.466;2023-04-09T13:42:14;8.23;72.33
68098;DHT22;54886;47.036;15.466;2023-04-09T13:44:41;8.15;72.56
68098;DHT22;54886;47.036;15.466;2023-04-09T13:47:13;8.20;72.87
68098;DHT22;54886;47.036;15.466;2023-04-09T13:49:39;8.20;72.45
68098;DHT22;54886;47.036;15.466;2023-04-09T13:52:05;8.18;71.54
68098;DHT22;54886;47.036;15.466;2023-04-09T13:54:31;8.34;70.80
68098;DHT22;54886;47.036;15.466;2023-04-09T13:56:56;8.21;70.98
68098;DHT22;54886;47.036;15.466;2023-04-09T13:59:22;8.28;72.36
68098;DHT22;54886;47.036;15.466;2023-04-09T14:01:47;8.23;72.96
68098;DHT22;54886;47.036;15.466;2023-04-09T14:04:12;8.28;73.78
68098;DHT22;54886;47.036;15.466;2023-04-09T14:06:38;8.37;73.30
68098;DHT22;54886;47.036;15.466;2023-04-09T14:09:03;8.41;71.88
68098;DHT22;54886;47.036;15.466;2023-04-09T14:11:29;8.41;71.90
68098;DHT22;54886;47.036;15.466;2023-04-09T14:13:54;8.48;70.71
68098;DHT22;54886;47.036;15.466;2023-04-09T14:16:20;8.46;72.14
68098;DHT22;54886;47.036;15.466;2023-04-09T14:18:45;8.48;71.46
68098;DHT22;54886;47.036;15.466;2023-04-09T14:21:11;8.51;71.94
68098;DHT22;54886;47.036;15.466;2023-04-09T14:23:38;8.46;72.53
68098;DHT22;54886;47.036;15.466;2023-04-09T14:26:04;8.49;70.35
68098;DHT22;54886;47.036;15.466;2023-04-09T14:28:30;8.49;71.20
68098;DHT22;54886;47.036;15.466;2023-04-09T14:30:57;8.49;71.59
68098;DHT22;54886;47.036;15.466;2023-04-09T14:33:23;8.48;72.22
68098;DHT22;54886;47.036;15.466;2023-04-09T14:35:49;8.46;72.51
68098;DHT22;54886;47.036;15.466;2023-04-09T14:38:14;8.44;72.25
68098;DHT22;54886;47.036;15.466;2023-04-09T14:40:40;8.44;72.29
68098;DHT22;54886;47.036;15.466;2023-04-09T14:43:06;8.42;72.92
68098;DHT22;54886;47.036;15.466;2023-04-09T14:45:31;8.32;73.67
68098;DHT22;54886;47.036;15.466;2023-04-09T14:47:57;8.40;71.50
68098;DHT22;54886;47.036;15.466;2023-04-09T14:50:22;8.42;70.61
68098;DHT22;54886;47.036;15.466;2023-04-09T14:52:48;8.40;71.07
68098;DHT22;54886;47.036;15.466;2023-04-09T14:55:14;8.37;70.28
68098;DHT22;54886;47.036;15.466;2023-04-09T14:57:40;8.41;71.38
68098;DHT22;54886;47.036;15.466;2023-04-09T15:00:07;8.41;70.37
68098;DHT22;54886;47.036;15.466;2023-04-09T15:02:33;8.40;70.56
68098;DHT22;54886;47.036;15.466;2023-04-09T15:05:08;8.44;70.10
68098;DHT22;54886;47.036;15.466;2023-04-09T15:07:34;8.46;71.22
68098;DHT22;54886;47.036;15.466;2023-04-09T15:09:59;8.51;70.23
68098;DHT22;54886;47.036;15.466;2023-04-09T15:12:27;8.49;70.33
68098;DHT22;54886;47.036;15.466;2023-04-09T15:14:54;8.45;70.59
68098;DHT22;54886;47.036;15.466;2023-04-09T15:17:19;8.44;71.79
68098;DHT22;54886;47.036;15.466;2023-04-09T15:19:45;8.37;69.97
68098;DHT22;54886;47.036;15.466;2023-04-09T15:22:11;8.44;70.79
68098;DHT22;54886;47.036;15.466;2023-04-09T15:24:36;8.44;71.38
68098;DHT22;54886;47.036;15.466;2023-04-09T15:27:02;8.46;70.94
68098;DHT22;54886;47.036;15.466;2023-04-09T15:29:27;8.46;70.32
68098;DHT22;54886;47.036;15.466;2023-04-09T15:31:53;8.48;71.15
68098;DHT22;54886;47.036;15.466;2023-04-09T15:34:18;8.41;71.74
68098;DHT22;54886;47.036;15.466;2023-04-09T15:36:44;8.40;71.73
68098;DHT22;54886;47.036;15.466;2023-04-09T15:39:10;8.44;72.10
68098;DHT22;54886;47.036;15.466;2023-04-09T15:41:35;8.34;72.78
68098;DHT22;54886;47.036;15.466;2023-04-09T15:44:01;8.28;71.88
68098;DHT22;54886;47.036;15.466;2023-04-09T15:46:26;8.31;71.50
68098;DHT22;54886;47.036;15.466;2023-04-09T15:48:52;8.25;71.82
68098;DHT22;54886;47.036;15.466;2023-04-09T15:51:17;8.28;72.07
68098;DHT22;54886;47.036;15.466;2023-04-09T15:53:43;8.27;71.49